PWSweather.com
Personal Weather Stations
Station Observations
KPASPRIN10
East Vincent, East Vincent, PA 19475

East VincentEast Vincent, PA 19475

Lat: 40.170948, Lon: -75.629681

Elevation: 404

Station Type: Davis VP2

http://www.evweather.com

High Low Average
Temperature 76.4°F24.7°C 60.5°F15.8°C 70.3°F21.3°C
Dew Point 74.4°F23.6°C 59.9°F15.5°C 69.2°F20.7°C
Winds 4.6 mph 7.4 kmh Calm Calm 2.0 mph SE3.2 kmh SE
Wind Gusts 11.5 mph18.5 kmh -- 3.0 mph4.8 kmh
Humidity 99% 89% 97%
Pressure 30.16 in1021.3 mb 29.82 in1009.8 mb -
Precipitation 0.40 in10.2 mm - -
Hour Temp Dew Point Humidity Winds Wind Gusts Pressure Precip Precip Rate Daily Precip Total
12:00 AM 62.6°F17.0°C 61.7°F16.5°C 97% Calm Calm -- 30.16 in1021.3 mb - 0.00 in0.0 mm 0.00 in0.0 mm
12:10 AM 62.3°F16.8°C 61.5°F16.4°C 97% Calm Calm -- 30.16 in1021.3 mb - 0.00 in0.0 mm 0.00 in0.0 mm
12:20 AM 62.2°F16.8°C 61.3°F16.3°C 97% Calm Calm -- 30.16 in1021.3 mb - 0.00 in0.0 mm 0.00 in0.0 mm
12:30 AM 62.0°F16.7°C 61.1°F16.2°C 97% Calm Calm -- 30.16 in1021.3 mb - 0.00 in0.0 mm 0.00 in0.0 mm
12:40 AM 62.0°F16.7°C 61.4°F16.3°C 98% Calm Calm -- 30.16 in1021.3 mb - 0.00 in0.0 mm 0.00 in0.0 mm
12:50 AM 61.3°F16.3°C 60.5°F15.8°C 97% Calm Calm -- 30.15 in1021.0 mb - 0.00 in0.0 mm 0.00 in0.0 mm
01:00 AM 61.2°F16.2°C 60.6°F15.9°C 98% Calm Calm -- 30.15 in1021.0 mb - 0.00 in0.0 mm 0.00 in0.0 mm
01:10 AM 60.7°F15.9°C 60.1°F15.6°C 98% Calm Calm -- 30.15 in1021.0 mb - 0.00 in0.0 mm 0.00 in0.0 mm
01:20 AM 60.9°F16.1°C 60.3°F15.7°C 98% Calm Calm -- 30.16 in1021.3 mb - 0.00 in0.0 mm 0.00 in0.0 mm
01:30 AM 60.9°F16.1°C 60.3°F15.7°C 98% Calm Calm -- 30.15 in1021.0 mb - 0.00 in0.0 mm 0.00 in0.0 mm
01:40 AM 60.9°F16.1°C 60.3°F15.7°C 98% Calm Calm -- 30.15 in1021.0 mb - 0.00 in0.0 mm 0.00 in0.0 mm
01:50 AM 61.1°F16.2°C 60.6°F15.9°C 98% Calm Calm -- 30.15 in1021.0 mb - 0.00 in0.0 mm 0.00 in0.0 mm
02:00 AM 60.9°F16.1°C 60.3°F15.7°C 98% Calm Calm 1.2 mph1.9 kmh 30.15 in1021.0 mb - 0.00 in0.0 mm 0.00 in0.0 mm
02:10 AM 60.8°F16.0°C 60.2°F15.7°C 98% Calm Calm -- 30.15 in1021.0 mb - 0.00 in0.0 mm 0.00 in0.0 mm
02:20 AM 60.5°F15.8°C 59.9°F15.5°C 98% Calm Calm -- 30.15 in1021.0 mb - 0.00 in0.0 mm 0.00 in0.0 mm
02:30 AM 60.9°F16.1°C 60.3°F15.7°C 98% Calm Calm -- 30.14 in1020.7 mb - 0.00 in0.0 mm 0.00 in0.0 mm
02:40 AM 61.4°F16.3°C 60.8°F16.0°C 98% Calm Calm -- 30.14 in1020.7 mb - 0.00 in0.0 mm 0.00 in0.0 mm
02:50 AM 62.0°F16.7°C 61.4°F16.3°C 98% Calm Calm -- 30.14 in1020.7 mb - 0.00 in0.0 mm 0.00 in0.0 mm
03:00 AM 62.5°F16.9°C 61.9°F16.6°C 98% Calm Calm -- 30.14 in1020.7 mb - 0.00 in0.0 mm 0.00 in0.0 mm
03:10 AM 62.9°F17.2°C 62.3°F16.8°C 98% Calm Calm -- 30.14 in1020.7 mb - 0.00 in0.0 mm 0.00 in0.0 mm
03:20 AM 63.0°F17.2°C 62.4°F16.9°C 98% Calm Calm -- 30.14 in1020.7 mb - 0.00 in0.0 mm 0.00 in0.0 mm
03:30 AM 62.9°F17.2°C 62.3°F16.8°C 98% Calm Calm -- 30.13 in1020.3 mb - 0.00 in0.0 mm 0.00 in0.0 mm
03:40 AM 62.2°F16.8°C 61.6°F16.4°C 98% 1.2 mph SE1.9 kmh SE 2.3 mph3.7 kmh 30.13 in1020.3 mb - 0.00 in0.0 mm 0.00 in0.0 mm
03:50 AM 62.5°F16.9°C 61.9°F16.6°C 98% Calm Calm -- 30.13 in1020.3 mb - 0.00 in0.0 mm 0.00 in0.0 mm
04:00 AM 62.7°F17.1°C 62.1°F16.7°C 98% Calm Calm -- 30.12 in1020.0 mb - 0.00 in0.0 mm 0.00 in0.0 mm
04:10 AM 62.6°F17.0°C 62.1°F16.7°C 98% Calm Calm -- 30.12 in1020.0 mb - 0.00 in0.0 mm 0.00 in0.0 mm
04:20 AM 62.6°F17.0°C 62.0°F16.7°C 98% Calm Calm -- 30.12 in1020.0 mb - 0.00 in0.0 mm 0.00 in0.0 mm
04:30 AM 62.6°F17.0°C 62.0°F16.7°C 98% Calm Calm -- 30.12 in1020.0 mb - 0.00 in0.0 mm 0.00 in0.0 mm
04:40 AM 63.0°F17.2°C 62.4°F16.9°C 98% Calm Calm -- 30.12 in1020.0 mb - 0.00 in0.0 mm 0.00 in0.0 mm
04:50 AM 63.5°F17.5°C 62.9°F17.2°C 98% Calm Calm -- 30.12 in1020.0 mb - 0.00 in0.0 mm 0.00 in0.0 mm
05:00 AM 63.8°F17.7°C 63.2°F17.3°C 98% Calm Calm -- 30.12 in1020.0 mb - 0.00 in0.0 mm 0.00 in0.0 mm
05:10 AM 63.8°F17.7°C 63.2°F17.3°C 98% Calm Calm -- 30.12 in1020.0 mb - 0.00 in0.0 mm 0.00 in0.0 mm
05:20 AM 63.8°F17.7°C 63.2°F17.3°C 98% Calm Calm 1.2 mph1.9 kmh 30.12 in1020.0 mb - 0.00 in0.0 mm 0.00 in0.0 mm
05:30 AM 63.9°F17.7°C 63.3°F17.4°C 98% Calm Calm -- 30.12 in1020.0 mb - 0.00 in0.0 mm 0.00 in0.0 mm
05:40 AM 64.0°F17.8°C 63.4°F17.4°C 98% Calm Calm -- 30.12 in1020.0 mb - 0.00 in0.0 mm 0.00 in0.0 mm
05:50 AM 64.1°F17.8°C 63.5°F17.5°C 98% Calm Calm -- 30.12 in1020.0 mb - 0.00 in0.0 mm 0.00 in0.0 mm
06:00 AM 64.1°F17.8°C 63.5°F17.5°C 98% Calm Calm -- 30.12 in1020.0 mb - 0.00 in0.0 mm 0.00 in0.0 mm
06:10 AM 64.2°F17.9°C 63.6°F17.6°C 98% 1.2 mph SE1.9 kmh SE 2.3 mph3.7 kmh 30.11 in1019.6 mb - 0.00 in0.0 mm 0.00 in0.0 mm
06:20 AM 64.2°F17.9°C 63.6°F17.6°C 98% 1.2 mph E1.9 kmh E 2.3 mph3.7 kmh 30.11 in1019.6 mb - 0.00 in0.0 mm 0.00 in0.0 mm
06:30 AM 64.2°F17.9°C 63.6°F17.6°C 98% Calm Calm -- 30.11 in1019.6 mb - 0.00 in0.0 mm 0.00 in0.0 mm
06:40 AM 64.3°F17.9°C 63.7°F17.6°C 98% Calm Calm -- 30.11 in1019.6 mb - 0.00 in0.0 mm 0.00 in0.0 mm
06:50 AM 64.4°F18.0°C 63.8°F17.7°C 98% Calm Calm -- 30.11 in1019.6 mb - 0.00 in0.0 mm 0.00 in0.0 mm
07:00 AM 64.5°F18.1°C 63.9°F17.7°C 98% Calm Calm -- 30.11 in1019.6 mb - 0.00 in0.0 mm 0.00 in0.0 mm
07:10 AM 64.5°F18.1°C 63.9°F17.7°C 98% Calm Calm -- 30.11 in1019.6 mb - 0.00 in0.0 mm 0.00 in0.0 mm
07:20 AM 64.6°F18.1°C 64.1°F17.8°C 98% Calm Calm -- 30.11 in1019.6 mb - 0.00 in0.0 mm 0.00 in0.0 mm
07:30 AM 65.2°F18.4°C 64.6°F18.1°C 98% Calm Calm -- 30.11 in1019.6 mb - 0.00 in0.0 mm 0.00 in0.0 mm
07:40 AM 65.2°F18.4°C 64.6°F18.1°C 98% Calm Calm -- 30.11 in1019.6 mb - 0.00 in0.0 mm 0.00 in0.0 mm
07:50 AM 65.3°F18.5°C 64.7°F18.2°C 98% Calm Calm 1.2 mph1.9 kmh 30.11 in1019.6 mb - 0.00 in0.0 mm 0.00 in0.0 mm
08:00 AM 65.4°F18.6°C 65.1°F18.4°C 99% Calm Calm -- 30.11 in1019.6 mb - 0.00 in0.0 mm 0.00 in0.0 mm
08:10 AM 65.5°F18.6°C 65.2°F18.4°C 99% 1.2 mph ENE1.9 kmh ENE 3.5 mph5.6 kmh 30.10 in1019.3 mb - 0.00 in0.0 mm 0.00 in0.0 mm
08:20 AM 65.7°F18.7°C 65.1°F18.4°C 98% 2.3 mph ENE3.7 kmh ENE 3.5 mph5.6 kmh 30.10 in1019.3 mb - 0.00 in0.0 mm 0.00 in0.0 mm
08:30 AM 66.0°F18.9°C 65.7°F18.7°C 99% Calm Calm 2.3 mph3.7 kmh 30.10 in1019.3 mb - 0.00 in0.0 mm 0.00 in0.0 mm
08:40 AM 66.3°F19.1°C 66.0°F18.9°C 99% Calm Calm 2.3 mph3.7 kmh 30.10 in1019.3 mb - 0.00 in0.0 mm 0.00 in0.0 mm
08:50 AM 66.8°F19.3°C 66.5°F19.2°C 99% Calm Calm -- 30.09 in1019.0 mb - 0.00 in0.0 mm 0.00 in0.0 mm
09:00 AM 66.9°F19.4°C 66.6°F19.2°C 99% Calm Calm -- 30.09 in1019.0 mb - 0.00 in0.0 mm 0.00 in0.0 mm
09:10 AM 67.5°F19.7°C 67.2°F19.6°C 99% Calm Calm -- 30.09 in1019.0 mb - 0.00 in0.0 mm 0.00 in0.0 mm
09:20 AM 67.6°F19.8°C 67.3°F19.6°C 99% 2.3 mph ENE3.7 kmh ENE 3.5 mph5.6 kmh 30.09 in1019.0 mb - 0.00 in0.0 mm 0.00 in0.0 mm
09:30 AM 67.8°F19.9°C 67.5°F19.7°C 99% 2.3 mph SE3.7 kmh SE 3.5 mph5.6 kmh 30.09 in1019.0 mb - 0.00 in0.0 mm 0.00 in0.0 mm
09:40 AM 67.9°F19.9°C 67.6°F19.8°C 99% 2.3 mph SE3.7 kmh SE 3.5 mph5.6 kmh 30.09 in1019.0 mb - 0.00 in0.0 mm 0.00 in0.0 mm
09:50 AM 68.6°F20.3°C 68.3°F20.2°C 99% 2.3 mph SE3.7 kmh SE 3.5 mph5.6 kmh 30.09 in1019.0 mb - 0.00 in0.0 mm 0.00 in0.0 mm
10:00 AM 69.0°F20.6°C 68.7°F20.4°C 99% 2.3 mph ESE3.7 kmh ESE 3.5 mph5.6 kmh 30.09 in1019.0 mb - 0.00 in0.0 mm 0.00 in0.0 mm
10:10 AM 69.5°F20.8°C 69.2°F20.7°C 99% 2.3 mph SE3.7 kmh SE 3.5 mph5.6 kmh 30.08 in1018.6 mb - 0.00 in0.0 mm 0.00 in0.0 mm
10:20 AM 69.9°F21.1°C 69.6°F20.9°C 99% Calm Calm -- 30.08 in1018.6 mb - 0.00 in0.0 mm 0.00 in0.0 mm
10:30 AM 70.4°F21.3°C 70.1°F21.2°C 99% Calm Calm 2.3 mph3.7 kmh 30.09 in1019.0 mb - 0.00 in0.0 mm 0.00 in0.0 mm
10:40 AM 71.1°F21.7°C 70.5°F21.4°C 98% 2.3 mph E3.7 kmh E 3.5 mph5.6 kmh 30.08 in1018.6 mb - 0.00 in0.0 mm 0.00 in0.0 mm
10:50 AM 71.8°F22.1°C 71.2°F21.8°C 98% 1.2 mph E1.9 kmh E 2.3 mph3.7 kmh 30.08 in1018.6 mb - 0.00 in0.0 mm 0.00 in0.0 mm
11:00 AM 72.5°F22.5°C 71.6°F22.0°C 97% 2.3 mph ENE3.7 kmh ENE 3.5 mph5.6 kmh 30.08 in1018.6 mb - 0.00 in0.0 mm 0.00 in0.0 mm
11:10 AM 73.9°F23.3°C 72.7°F22.6°C 96% 2.3 mph ESE3.7 kmh ESE 5.8 mph9.3 kmh 30.07 in1018.3 mb - 0.00 in0.0 mm 0.00 in0.0 mm
11:20 AM 75.0°F23.9°C 73.1°F22.8°C 94% 4.6 mph SE7.4 kmh SE 5.8 mph9.3 kmh 30.07 in1018.3 mb - 0.00 in0.0 mm 0.00 in0.0 mm
11:30 AM 75.4°F24.1°C 72.6°F22.6°C 91% 4.6 mph SE7.4 kmh SE 8.1 mph13.0 kmh 30.06 in1017.9 mb - 0.00 in0.0 mm 0.00 in0.0 mm
11:40 AM 75.7°F24.3°C 72.9°F22.7°C 91% 4.6 mph SE7.4 kmh SE 8.1 mph13.0 kmh 30.06 in1017.9 mb - 0.00 in0.0 mm 0.00 in0.0 mm
11:50 AM 75.9°F24.4°C 72.8°F22.7°C 90% 3.5 mph SE5.6 kmh SE 6.9 mph11.1 kmh 30.05 in1017.6 mb - 0.00 in0.0 mm 0.00 in0.0 mm
12:00 PM 76.4°F24.7°C 72.9°F22.7°C 89% 2.3 mph SE3.7 kmh SE 4.6 mph7.4 kmh 30.05 in1017.6 mb - 0.00 in0.0 mm 0.00 in0.0 mm
12:10 PM 76.0°F24.4°C 72.5°F22.5°C 89% 4.6 mph SE7.4 kmh SE 6.9 mph11.1 kmh 30.05 in1017.6 mb - 0.00 in0.0 mm 0.00 in0.0 mm
12:20 PM 76.0°F24.4°C 72.5°F22.5°C 89% 2.3 mph ESE3.7 kmh ESE 6.9 mph11.1 kmh 30.05 in1017.6 mb - 0.00 in0.0 mm 0.00 in0.0 mm
12:30 PM 76.1°F24.5°C 72.6°F22.6°C 89% 3.5 mph SE5.6 kmh SE 6.9 mph11.1 kmh 30.04 in1017.3 mb - 0.00 in0.0 mm 0.00 in0.0 mm
12:40 PM 76.3°F24.6°C 72.8°F22.7°C 89% 3.5 mph SE5.6 kmh SE 3.5 mph5.6 kmh 30.04 in1017.3 mb - 0.00 in0.0 mm 0.00 in0.0 mm
12:50 PM 76.3°F24.6°C 72.8°F22.7°C 89% 3.5 mph SE5.6 kmh SE 5.8 mph9.3 kmh 30.03 in1016.9 mb - 0.00 in0.0 mm 0.00 in0.0 mm
01:00 PM 76.4°F24.7°C 73.2°F22.9°C 90% 3.5 mph ESE5.6 kmh ESE 5.8 mph9.3 kmh 30.03 in1016.9 mb - 0.00 in0.0 mm 0.00 in0.0 mm
01:10 PM 75.9°F24.4°C 73.1°F22.8°C 91% 2.3 mph SE3.7 kmh SE 3.5 mph5.6 kmh 30.02 in1016.6 mb - 0.00 in0.0 mm 0.00 in0.0 mm
01:20 PM 75.8°F24.3°C 73.0°F22.8°C 91% 3.5 mph SE5.6 kmh SE 5.8 mph9.3 kmh 30.02 in1016.6 mb - 0.00 in0.0 mm 0.00 in0.0 mm
01:30 PM 75.1°F23.9°C 72.9°F22.7°C 93% 2.3 mph SE3.7 kmh SE 3.5 mph5.6 kmh 30.02 in1016.6 mb - 0.00 in0.0 mm 0.00 in0.0 mm
01:40 PM 74.7°F23.7°C 72.9°F22.7°C 94% 2.3 mph SE3.7 kmh SE 3.5 mph5.6 kmh 30.02 in1016.6 mb - 0.02 in0.5 mm 0.02 in0.5 mm
01:50 PM 73.9°F23.3°C 72.4°F22.4°C 95% 2.3 mph SSE3.7 kmh SSE 5.8 mph9.3 kmh 30.02 in1016.6 mb - 0.04 in1.0 mm 0.04 in1.0 mm
02:00 PM 74.0°F23.3°C 72.5°F22.5°C 95% 1.2 mph SE1.9 kmh SE 2.3 mph3.7 kmh 30.01 in1016.3 mb - 0.05 in1.3 mm 0.05 in1.3 mm
02:10 PM 74.3°F23.5°C 72.8°F22.7°C 95% 2.3 mph S3.7 kmh S 3.5 mph5.6 kmh 30.01 in1016.3 mb - 0.05 in1.3 mm 0.05 in1.3 mm
02:20 PM 74.7°F23.7°C 72.9°F22.7°C 94% 2.3 mph S3.7 kmh S 3.5 mph5.6 kmh 30.00 in1015.9 mb - 0.05 in1.3 mm 0.05 in1.3 mm
02:30 PM 74.8°F23.8°C 73.0°F22.8°C 94% 2.3 mph SSE3.7 kmh SSE 3.5 mph5.6 kmh 29.99 in1015.6 mb - 0.05 in1.3 mm 0.05 in1.3 mm
02:40 PM 75.1°F23.9°C 73.6°F23.1°C 95% 2.3 mph SE3.7 kmh SE 3.5 mph5.6 kmh 29.99 in1015.6 mb - 0.04 in1.0 mm 0.05 in1.3 mm
02:50 PM 75.3°F24.1°C 73.5°F23.1°C 94% 1.2 mph ESE1.9 kmh ESE 3.5 mph5.6 kmh 29.98 in1015.2 mb - 0.01 in0.3 mm 0.05 in1.3 mm
03:00 PM 75.4°F24.1°C 73.9°F23.3°C 95% 3.5 mph SE5.6 kmh SE 5.8 mph9.3 kmh 29.98 in1015.2 mb - 0.00 in0.0 mm 0.05 in1.3 mm
03:10 PM 75.4°F24.1°C 73.9°F23.3°C 95% 1.2 mph SSE1.9 kmh SSE 2.3 mph3.7 kmh 29.98 in1015.2 mb - 0.00 in0.0 mm 0.05 in1.3 mm
03:20 PM 75.9°F24.4°C 74.4°F23.6°C 95% 1.2 mph SSE1.9 kmh SSE 5.8 mph9.3 kmh 29.97 in1014.9 mb - 0.00 in0.0 mm 0.05 in1.3 mm
03:30 PM 75.7°F24.3°C 73.9°F23.3°C 94% 3.5 mph SSE5.6 kmh SSE 3.5 mph5.6 kmh 29.96 in1014.6 mb - 0.00 in0.0 mm 0.05 in1.3 mm
03:40 PM 75.7°F24.3°C 73.8°F23.2°C 94% 3.5 mph SE5.6 kmh SE 4.6 mph7.4 kmh 29.96 in1014.6 mb - 0.00 in0.0 mm 0.05 in1.3 mm
03:50 PM 75.4°F24.1°C 73.6°F23.1°C 94% 2.3 mph SSE3.7 kmh SSE 4.6 mph7.4 kmh 29.96 in1014.6 mb - 0.01 in0.3 mm 0.06 in1.5 mm
04:00 PM 74.7°F23.7°C 73.2°F22.9°C 95% 3.5 mph SE5.6 kmh SE 5.8 mph9.3 kmh 29.96 in1014.6 mb - 0.11 in2.8 mm 0.16 in4.1 mm
04:10 PM 74.4°F23.6°C 73.2°F22.9°C 96% 2.3 mph SE3.7 kmh SE 3.5 mph5.6 kmh 29.95 in1014.2 mb - 0.13 in3.3 mm 0.18 in4.6 mm
04:20 PM 74.4°F23.6°C 73.2°F22.9°C 96% 3.5 mph ESE5.6 kmh ESE 5.8 mph9.3 kmh 29.95 in1014.2 mb - 0.14 in3.6 mm 0.19 in4.8 mm
04:30 PM 74.5°F23.6°C 73.6°F23.1°C 97% 2.3 mph SE3.7 kmh SE 2.3 mph3.7 kmh 29.95 in1014.2 mb - 0.15 in3.8 mm 0.20 in5.1 mm
04:40 PM 74.7°F23.7°C 73.8°F23.2°C 97% 3.5 mph SE5.6 kmh SE 6.9 mph11.1 kmh 29.94 in1013.9 mb - 0.15 in3.8 mm 0.20 in5.1 mm
04:50 PM 74.7°F23.7°C 73.8°F23.2°C 97% 2.3 mph SE3.7 kmh SE 3.5 mph5.6 kmh 29.94 in1013.9 mb - 0.15 in3.8 mm 0.20 in5.1 mm
05:00 PM 74.7°F23.7°C 73.8°F23.2°C 97% 3.5 mph SE5.6 kmh SE 3.5 mph5.6 kmh 29.94 in1013.9 mb - 0.05 in1.3 mm 0.20 in5.1 mm
05:10 PM 74.5°F23.6°C 73.6°F23.1°C 97% 1.2 mph ESE1.9 kmh ESE 3.5 mph5.6 kmh 29.93 in1013.5 mb - 0.02 in0.5 mm 0.20 in5.1 mm
05:20 PM 74.7°F23.7°C 73.8°F23.2°C 97% 3.5 mph SE5.6 kmh SE 4.6 mph7.4 kmh 29.93 in1013.5 mb - 0.01 in0.3 mm 0.20 in5.1 mm
05:30 PM 74.7°F23.7°C 73.8°F23.2°C 97% 3.5 mph SE5.6 kmh SE 5.8 mph9.3 kmh 29.93 in1013.5 mb - 0.00 in0.0 mm 0.20 in5.1 mm
05:40 PM 74.6°F23.7°C 73.7°F23.2°C 97% 3.5 mph SE5.6 kmh SE 5.8 mph9.3 kmh 29.93 in1013.5 mb - 0.00 in0.0 mm 0.20 in5.1 mm
05:50 PM 74.5°F23.6°C 73.6°F23.1°C 97% 2.3 mph SE3.7 kmh SE 3.5 mph5.6 kmh 29.92 in1013.2 mb - 0.00 in0.0 mm 0.20 in5.1 mm
06:00 PM 74.4°F23.6°C 73.5°F23.1°C 97% 3.5 mph SE5.6 kmh SE 4.6 mph7.4 kmh 29.92 in1013.2 mb - 0.00 in0.0 mm 0.20 in5.1 mm
06:10 PM 74.3°F23.5°C 73.1°F22.8°C 96% 2.3 mph SE3.7 kmh SE 6.9 mph11.1 kmh 29.92 in1013.2 mb - 0.00 in0.0 mm 0.20 in5.1 mm
06:20 PM 74.1°F23.4°C 72.9°F22.7°C 96% 4.6 mph ESE7.4 kmh ESE 6.9 mph11.1 kmh 29.91 in1012.9 mb - 0.00 in0.0 mm 0.20 in5.1 mm
06:30 PM 73.9°F23.3°C 73.0°F22.8°C 97% 3.5 mph SE5.6 kmh SE 4.6 mph7.4 kmh 29.91 in1012.9 mb - 0.00 in0.0 mm 0.20 in5.1 mm
06:40 PM 73.8°F23.2°C 72.9°F22.7°C 97% 2.3 mph SSE3.7 kmh SSE 4.6 mph7.4 kmh 29.91 in1012.9 mb - 0.00 in0.0 mm 0.20 in5.1 mm
06:50 PM 73.7°F23.2°C 72.8°F22.7°C 97% 2.3 mph ESE3.7 kmh ESE 3.5 mph5.6 kmh 29.91 in1012.9 mb - 0.00 in0.0 mm 0.20 in5.1 mm
07:00 PM 73.7°F23.2°C 72.8°F22.7°C 97% 1.2 mph SE1.9 kmh SE 2.3 mph3.7 kmh 29.91 in1012.9 mb - 0.00 in0.0 mm 0.20 in5.1 mm
07:10 PM 73.7°F23.2°C 72.8°F22.7°C 97% 3.5 mph SE5.6 kmh SE 3.5 mph5.6 kmh 29.90 in1012.5 mb - 0.00 in0.0 mm 0.20 in5.1 mm
07:20 PM 73.7°F23.2°C 72.8°F22.7°C 97% 2.3 mph SE3.7 kmh SE 3.5 mph5.6 kmh 29.90 in1012.5 mb - 0.00 in0.0 mm 0.20 in5.1 mm
07:30 PM 73.7°F23.2°C 72.8°F22.7°C 97% 4.6 mph SE7.4 kmh SE 10.4 mph16.7 kmh 29.89 in1012.2 mb - 0.00 in0.0 mm 0.20 in5.1 mm
07:40 PM 73.7°F23.2°C 72.8°F22.7°C 97% 2.3 mph SE3.7 kmh SE 4.6 mph7.4 kmh 29.89 in1012.2 mb - 0.00 in0.0 mm 0.20 in5.1 mm
07:50 PM 73.7°F23.2°C 72.5°F22.5°C 96% Calm Calm 1.2 mph1.9 kmh 29.89 in1012.2 mb - 0.01 in0.3 mm 0.21 in5.3 mm
08:00 PM 73.6°F23.1°C 72.7°F22.6°C 97% 2.3 mph S3.7 kmh S 3.5 mph5.6 kmh 29.89 in1012.2 mb - 0.01 in0.3 mm 0.21 in5.3 mm
08:10 PM 73.6°F23.1°C 72.4°F22.4°C 96% Calm Calm 1.2 mph1.9 kmh 29.89 in1012.2 mb - 0.01 in0.3 mm 0.21 in5.3 mm
08:20 PM 73.6°F23.1°C 72.4°F22.4°C 96% 2.3 mph SE3.7 kmh SE 3.5 mph5.6 kmh 29.89 in1012.2 mb - 0.01 in0.3 mm 0.21 in5.3 mm
08:30 PM 73.5°F23.1°C 72.3°F22.4°C 96% 2.3 mph SSE3.7 kmh SSE 3.5 mph5.6 kmh 29.89 in1012.2 mb - 0.04 in1.0 mm 0.24 in6.1 mm
08:40 PM 73.4°F23.0°C 72.2°F22.3°C 96% 2.3 mph SE3.7 kmh SE 3.5 mph5.6 kmh 29.89 in1012.2 mb - 0.07 in1.8 mm 0.27 in6.9 mm
08:50 PM 73.3°F22.9°C 72.4°F22.4°C 97% 2.3 mph SE3.7 kmh SE 4.6 mph7.4 kmh 29.89 in1012.2 mb - 0.07 in1.8 mm 0.28 in7.1 mm
09:00 PM 73.2°F22.9°C 72.3°F22.4°C 97% 1.2 mph SE1.9 kmh SE 3.5 mph5.6 kmh 29.89 in1012.2 mb - 0.14 in3.6 mm 0.35 in8.9 mm
09:10 PM 73.1°F22.8°C 72.2°F22.3°C 97% 2.3 mph SSE3.7 kmh SSE 3.5 mph5.6 kmh 29.89 in1012.2 mb - 0.16 in4.1 mm 0.37 in9.4 mm
09:20 PM 73.1°F22.8°C 72.2°F22.3°C 97% 3.5 mph SE5.6 kmh SE 3.5 mph5.6 kmh 29.88 in1011.9 mb - 0.18 in4.6 mm 0.39 in9.9 mm
09:30 PM 73.0°F22.8°C 72.1°F22.3°C 97% 1.2 mph S1.9 kmh S 2.3 mph3.7 kmh 29.88 in1011.9 mb - 0.16 in4.1 mm 0.39 in9.9 mm
09:40 PM 73.0°F22.8°C 72.1°F22.3°C 97% Calm Calm 2.3 mph3.7 kmh 29.87 in1011.5 mb - 0.12 in3.0 mm 0.39 in9.9 mm
09:50 PM 73.0°F22.8°C 72.1°F22.3°C 97% 2.3 mph SSW3.7 kmh SSW 3.5 mph5.6 kmh 29.87 in1011.5 mb - 0.11 in2.8 mm 0.39 in9.9 mm
10:00 PM 73.1°F22.8°C 72.2°F22.3°C 97% Calm Calm 3.5 mph5.6 kmh 29.87 in1011.5 mb - 0.05 in1.3 mm 0.39 in9.9 mm
10:10 PM 73.2°F22.9°C 72.3°F22.4°C 97% 1.2 mph S1.9 kmh S 3.5 mph5.6 kmh 29.86 in1011.2 mb - 0.02 in0.5 mm 0.39 in9.9 mm
10:20 PM 73.4°F23.0°C 72.5°F22.5°C 97% 1.2 mph S1.9 kmh S 2.3 mph3.7 kmh 29.86 in1011.2 mb - 0.00 in0.0 mm 0.39 in9.9 mm
10:30 PM 73.4°F23.0°C 72.5°F22.5°C 97% Calm Calm 2.3 mph3.7 kmh 29.86 in1011.2 mb - 0.01 in0.3 mm 0.40 in10.2 mm
10:40 PM 73.5°F23.1°C 72.6°F22.6°C 97% 1.2 mph S1.9 kmh S 1.2 mph1.9 kmh 29.85 in1010.8 mb - 0.01 in0.3 mm 0.40 in10.2 mm
10:50 PM 73.6°F23.1°C 72.7°F22.6°C 97% Calm Calm 1.2 mph1.9 kmh 29.85 in1010.8 mb - 0.01 in0.3 mm 0.40 in10.2 mm
11:00 PM 73.7°F23.2°C 72.8°F22.7°C 97% Calm Calm 1.2 mph1.9 kmh 29.86 in1011.2 mb - 0.01 in0.3 mm 0.40 in10.2 mm
11:10 PM 73.8°F23.2°C 72.9°F22.7°C 97% 1.2 mph S1.9 kmh S 3.5 mph5.6 kmh 29.85 in1010.8 mb - 0.01 in0.3 mm 0.40 in10.2 mm
11:20 PM 73.9°F23.3°C 73.0°F22.8°C 97% 1.2 mph S1.9 kmh S 2.3 mph3.7 kmh 29.85 in1010.8 mb - 0.01 in0.3 mm 0.40 in10.2 mm
11:30 PM 74.0°F23.3°C 73.1°F22.8°C 97% 2.3 mph S3.7 kmh S 4.6 mph7.4 kmh 29.84 in1010.5 mb - 0.01 in0.3 mm 0.40 in10.2 mm
11:40 PM 74.0°F23.3°C 73.1°F22.8°C 97% 3.5 mph S5.6 kmh S 5.8 mph9.3 kmh 29.84 in1010.5 mb - 0.00 in0.0 mm 0.40 in10.2 mm
11:50 PM 74.2°F23.4°C 73.3°F22.9°C 97% 3.5 mph S5.6 kmh S 5.8 mph9.3 kmh 29.84 in1010.5 mb - 0.00 in0.0 mm 0.40 in10.2 mm